ADDS METAR Data INFO
IDs: Format: Raw Decoded Include TAF

Data at: 0749 UTC 24 Oct 2017

KPWC 240733Z AUTO 34019G25KT 10SM OVC029 03/M02 A2997 RMK AO2
KPWC 240713Z AUTO 34013G24KT 10SM OVC027 03/M02 A2997 RMK AO2
KPWC 240653Z AUTO 35016G26KT 10SM OVC027 04/M01 A2997 RMK AO2
KPWC 240633Z AUTO 34015G25KT 10SM OVC025 04/M01 A2997 RMK AO2
KPWC 240613Z AUTO 34012G21KT 10SM BKN025 BKN030 OVC036 04/M01 A2997 RMK AO2
KPWC 240552Z AUTO 34012G20KT 10SM OVC032 04/M01 A2996 RMK AO2
KPWC 240533Z AUTO 33014G25KT 10SM OVC032 04/M01 A2997 RMK AO2
KPWC 240513Z AUTO 34013G25KT 10SM BKN032 OVC080 04/M02 A2997 RMK AO2
KPWC 240453Z AUTO 33013G18KT 10SM SCT032 OVC080 04/M02 A2997 RMK AO2
KPWC 240433Z AUTO 33014G27KT 10SM BKN034 BKN080 04/M02 A2997 RMK AO2
KPWC 240413Z AUTO 34018G24KT 10SM SCT034 OVC080 04/M02 A2997 RMK AO2
KPWC 240353Z AUTO 34011G21KT 10SM BKN036 OVC080 04/M02 A2997 RMK AO2
KPWC 240332Z AUTO 34012G20KT 10SM BKN038 04/M02 A2997 RMK AO2
KPWC 240313Z AUTO 33011G17KT 10SM BKN038 04/M03 A2998 RMK AO2
KPWC 240252Z AUTO 33010G16KT 10SM SCT038 04/M03 A2998 RMK AO2
KPWC 240233Z AUTO 33009G17KT 10SM SCT038 04/M03 A2998 RMK AO2
KPWC 240213Z AUTO 33012G17KT 10SM SCT040 04/M03 A2997 RMK AO2
KPWC 240153Z AUTO 33012G19KT 10SM CLR 04/M03 A2997 RMK AO2
KPWC 240132Z AUTO 33014G21KT 10SM CLR 04/M03 A2996 RMK AO2
KPWC 240113Z AUTO 33012G20KT 10SM CLR 04/M03 A2996 RMK AO2
KPWC 240052Z AUTO 33009G18KT 10SM CLR 05/M03 A2996 RMK AO2
KPWC 240033Z AUTO 33007G14KT 10SM CLR 05/M03 A2996 RMK AO2
KPWC 240013Z AUTO 33008G18KT 10SM CLR 06/M03 A2995 RMK AO2
KPWC 232352Z AUTO 33013G21KT 10SM CLR 06/M03 A2995 RMK AO2
KPWC 232333Z AUTO 33013G18KT 10SM CLR 06/M03 A2994 RMK AO2
KPWC 232312Z AUTO 32010G17KT 10SM CLR 06/M02 A2993 RMK AO2
KPWC 232253Z AUTO 32012G16KT 10SM CLR 07/M02 A2991 RMK AO2
KPWC 232232Z AUTO 31013G22KT 10SM SCT065 07/M03 A2989 RMK AO2
KPWC 232212Z AUTO 30014G20KT 10SM OVC065 08/M03 A2989 RMK AO2
KPWC 232152Z AUTO 32012G20KT 10SM SCT048 OVC065 08/M01 A2989 RMK AO2
KPWC 232133Z AUTO 32007KT 10SM BKN048 OVC065 07/M01 A2989 RMK AO2
KPWC 232113Z AUTO 32009G19KT 10SM OVC044 07/M02 A2990 RMK AO2
KPWC 232053Z AUTO 32011G19KT 10SM OVC042 07/M01 A2990 RMK AO2
KPWC 232033Z AUTO 31006G18KT 10SM OVC038 06/00 A2989 RMK AO2
KPWC 232013Z AUTO 32010G20KT 10SM OVC038 06/00 A2989 RMK AO2
KPWC 231953Z AUTO 31009G17KT 10SM OVC038 06/01 A2989 RMK AO2
KPWC 231932Z AUTO 33007KT 10SM BKN025 OVC032 06/01 A2989 RMK AO2
KPWC 231913Z AUTO 32013KT 10SM OVC022 07/02 A2987 RMK AO2
KPWC 231853Z AUTO 33014G20KT 10SM OVC020 07/03 A2986 RMK AO2
KPWC 231833Z AUTO 32015G20KT 10SM OVC018 07/03 A2984 RMK AO2
KPWC 231813Z AUTO 32012G18KT 10SM OVC020 07/03 A2984 RMK AO2
KPWC 231753Z AUTO 33015G20KT 10SM OVC020 07/03 A2982 RMK AO2
KPWC 231732Z AUTO 31014G20KT 10SM OVC020 07/03 A2981 RMK AO2
KPWC 231713Z AUTO 30012G18KT 10SM OVC020 07/03 A2980 RMK AO2
KPWC 231653Z AUTO 29010G16KT 10SM OVC022 08/03 A2979 RMK AO2
KPWC 231632Z AUTO 30007G15KT 10SM OVC024 08/03 A2978 RMK AO2
KPWC 231613Z AUTO 31011G17KT 10SM BKN026 08/03 A2979 RMK AO2
KPWC 231552Z AUTO 30011G20KT 274V344 10SM SCT026 08/03 A2978 RMK AO2
KPWC 231532Z AUTO 28006G18KT 10SM SCT026 09/03 A2978 RMK AO2
KPWC 231512Z AUTO 28010G18KT 10SM CLR 09/03 A2977 RMK AO2
KPWC 231453Z AUTO 29009G22KT 244V324 10SM CLR 09/03 A2977 RMK AO2
KPWC 231433Z AUTO 28008G17KT 10SM SCT120 09/03 A2977 RMK AO2
KPWC 231412Z AUTO 28010G16KT 10SM SCT120 09/03 A2977 RMK AO2
KPWC 231358Z AUTO 28008KT 254V314 10SM CLR 09/04 A2976 RMK AO2
KPWC 231333Z AUTO 27008KT 224V294 10SM CLR 09/04 A2975 RMK AO2
KPWC 231312Z AUTO 28007KT 10SM CLR 09/04 A2975 RMK AO2
KPWC 231253Z AUTO 25005KT 10SM CLR 09/04 A2973 RMK AO2
KPWC 231232Z AUTO 26003KT 10SM SCT080 09/04 A2972 RMK AO2
KPWC 231213Z AUTO 00000KT 10SM -RA SCT065 BKN090 10/04 A2972 RMK AO2
KPWC 231152Z AUTO 27007KT 10SM BKN065 BKN075 11/04 A2972 RMK AO2
KPWC 231132Z AUTO 26005KT 10SM SCT075 11/04 A2972 RMK AO2
KPWC 231112Z AUTO 24004KT 10SM SCT075 SCT110 11/04 A2971 RMK AO2
KPWC 231053Z AUTO 23004KT 10SM BKN110 11/03 A2970 RMK AO2
KPWC 231033Z AUTO 24004KT 10SM SCT120 11/03 A2970 RMK AO2
KPWC 231013Z AUTO 22004KT 10SM SCT110 11/03 A2970 RMK AO2
KPWC 230953Z AUTO 22006KT 10SM SCT100 11/02 A2969 RMK AO2
KPWC 230933Z AUTO 21006KT 10SM SCT100 10/02 A2970 RMK AO2
KPWC 230912Z AUTO 20006KT 10SM SCT100 10/02 A2970 RMK AO2
KPWC 230853Z AUTO 18006KT 10SM -DZ SCT070 OVC100 10/02 A2970 RMK AO2
KPWC 230833Z AUTO 18006KT 10SM SCT070 OVC100 10/02 A2971 RMK AO2
KPWC 230813Z AUTO 18007KT 10SM BKN110 10/02 A2971 RMK AO2
KPWC 230752Z AUTO 17005KT 10SM BKN100 120 10/02 A2972 RMK AO2
KPWC 230733Z AUTO 16004KT 10SM OVC100 09/02 A2972 RMK AO2
KPWC 230713Z AUTO 15005KT 10SM OVC090 09/02 A2973 RMK AO2
KPWC 230652Z AUTO 17004KT 10SM BKN090 120 10/02 A2974 RMK AO2
KPWC 230633Z AUTO 18004KT 10SM SCT120 10/02 A2974 RMK AO2
KPWC 230613Z AUTO 17006KT 10SM CLR 11/02 A2974 RMK AO2
KPWC 230552Z AUTO 17007KT 10SM SCT090 11/01 A2975 RMK AO2
KPWC 230533Z AUTO 18007KT 10SM BKN090 11/01 A2976 RMK AO2
KPWC 230513Z AUTO 17006KT 10SM OVC090 11/01 A2977 RMK AO2
KPWC 230453Z AUTO 18008KT 10SM BKN090 11/01 A2978 RMK AO2
KPWC 230433Z AUTO 17007KT 10SM OVC090 11/01 A2978 RMK AO2
KPWC 230413Z AUTO 18007KT 10SM BKN090 BKN100 11/01 A2979 RMK AO2
KPWC 230352Z AUTO 18007KT 10SM CLR 12/01 A2980 RMK AO2
KPWC 230333Z AUTO 17008KT 10SM SCT080 12/01 A2980 RMK AO2
KPWC 230312Z AUTO 17007KT 10SM SCT065 BKN080 BKN085 12/01 A2981 RMK AO2
KPWC 230253Z AUTO 19006KT 10SM -RA SCT065 OVC080 12/01 A2983 RMK AO2
KPWC 230232Z AUTO 17007KT 10SM BKN080 12/01 A2983 RMK AO2
KPWC 230213Z AUTO 18004KT 10SM BKN080 12/01 A2983 RMK AO2
KPWC 230152Z AUTO 20006KT 10SM BKN080 12/00 A2984 RMK AO2
KPWC 230133Z AUTO 19006KT 10SM BKN080 12/01 A2984 RMK AO2
KPWC 230112Z AUTO 16005KT 10SM SCT080 11/01 A2984 RMK AO2
KPWC 230052Z AUTO 17006KT 10SM BKN090 11/01 A2985 RMK AO2
KPWC 230032Z AUTO 18006KT 10SM SCT100 120 11/00 A2985 RMK AO2
KPWC 230012Z AUTO 17005KT 10SM BKN110 11/00 A2986 RMK AO2
KPWC 222353Z AUTO 16003KT 10SM SCT120 10/01 A2985 RMK AO2
KPWC 222333Z AUTO 17003KT 10SM CLR 11/01 A2986 RMK AO2
KPWC 222313Z AUTO 18004KT 10SM CLR 11/M01 A2986 RMK AO2
KPWC 222253Z AUTO 19005KT 10SM CLR 12/M01 A2986 RMK AO2
KPWC 222233Z AUTO 21005KT 10SM CLR 13/00 A2986 RMK AO2
KPWC 222213Z AUTO 20006KT 10SM CLR 13/00 A2986 RMK AO2
KPWC 222152Z AUTO 22007G15KT 10SM CLR 14/00 A2987 RMK AO2
KPWC 222133Z AUTO 22009G16KT 10SM CLR 14/M01 A2987 RMK AO2
KPWC 222113Z AUTO 25009KT 10SM CLR 14/M01 A2987 RMK AO2
KPWC 222052Z AUTO 23006KT 10SM CLR 14/M01 A2988 RMK AO2
KPWC 222033Z AUTO 25007KT 214V294 10SM CLR 14/M01 A2988 RMK AO2
KPWC 222013Z AUTO 26009G15KT 10SM CLR 14/M01 A2988 RMK AO2
KPWC 221953Z AUTO 25007G16KT 10SM CLR 14/M01 A2989 RMK AO2